createdAt,value
2022-12-01T00:00:42.752Z,100996.00
2022-12-01T00:01:44.368Z,100995.16
2022-12-01T00:02:46.124Z,100997.09
2022-12-01T00:03:47.708Z,101003.78
2022-12-01T00:04:49.177Z,101000.16
2022-12-01T00:06:00.407Z,100999.31
2022-12-01T00:07:01.900Z,101002.09
2022-12-01T00:08:05.080Z,101003.16
2022-12-01T00:09:25.372Z,100997.84
2022-12-01T00:10:26.875Z,101006.16
2022-12-01T00:11:28.465Z,101006.16
2022-12-01T00:12:30.003Z,101006.97
2022-12-01T00:13:31.736Z,101008.69
2022-12-01T00:14:33.226Z,101003.09
2022-12-01T00:15:35.306Z,101002.25
2022-12-01T00:16:36.898Z,100993.88
2022-12-01T00:17:38.562Z,101001.41
2022-12-01T00:18:40.051Z,101001.41
2022-12-01T00:19:41.505Z,101006.16
2022-12-01T00:20:43.067Z,101004.44
2022-12-01T00:21:45.400Z,101011.97
2022-12-01T00:22:47.162Z,101005.56
2022-12-01T00:23:50.070Z,101001.06
2022-12-01T00:24:51.534Z,101013.09
2022-12-01T00:25:52.976Z,101007.50
2022-12-01T00:26:54.477Z,101015.03
2022-12-01T00:27:56.000Z,101013.59
2022-12-01T00:28:57.883Z,101002.44
2022-12-01T00:29:59.456Z,100996.84
2022-12-01T00:31:00.930Z,101003.28
2022-12-01T00:32:02.515Z,101008.00
2022-12-01T00:33:04.066Z,101008.00
2022-12-01T00:34:10.803Z,101009.91
2022-12-01T00:35:13.002Z,101003.28
2022-12-01T00:36:14.485Z,101005.22
2022-12-01T00:37:16.120Z,101007.13
2022-12-01T00:38:17.576Z,101009.91
2022-12-01T00:39:19.419Z,101005.22
2022-12-01T00:40:20.896Z,101011.66
2022-12-01T00:41:22.572Z,101006.06
2022-12-01T00:42:24.447Z,101010.53
2022-12-01T00:43:25.956Z,101004.97
2022-12-01T00:44:27.412Z,101007.13
2022-12-01T00:45:28.926Z,101000.69
2022-12-01T00:46:30.499Z,101014.44
2022-12-01T00:47:32.044Z,101003.28
2022-12-01T00:48:33.585Z,101008.22
2022-12-01T00:49:35.176Z,101009.34
2022-12-01T00:50:36.635Z,101009.34
2022-12-01T00:51:38.103Z,101003.75
2022-12-01T00:52:39.675Z,100984.03
2022-12-01T00:53:41.151Z,101015.50
2022-12-01T00:54:42.711Z,101011.03
2022-12-01T00:55:44.293Z,101009.91
2022-12-01T00:56:45.766Z,101012.72
2022-12-01T00:57:47.236Z,101014.44
2022-12-01T00:58:48.773Z,101013.34
2022-12-01T00:59:50.575Z,101010.53
2022-12-01T01:00:59.089Z,101016.97
2022-12-01T01:02:00.737Z,101014.44
2022-12-01T01:03:02.211Z,101014.44
2022-12-01T01:04:03.758Z,101016.13
2022-12-01T01:05:05.470Z,101020.03
2022-12-01T01:06:07.633Z,101021.72
2022-12-01T01:07:09.089Z,101017.22
2022-12-01T01:08:11.131Z,101019.16
2022-12-01T01:09:12.697Z,101014.44
2022-12-01T01:10:14.159Z,101018.28
2022-12-01T01:11:15.660Z,101026.66
2022-12-01T01:12:17.117Z,101022.19
2022-12-01T01:13:18.699Z,101023.50
2022-12-01T01:14:20.626Z,101027.41
2022-12-01T01:15:22.081Z,101028.66
2022-12-01T01:16:23.669Z,101032.78
2022-12-01T01:17:25.198Z,101027.72
2022-12-01T01:18:26.707Z,101031.34
2022-12-01T01:19:28.202Z,101032.94
2022-12-01T01:20:29.751Z,101026.22
2022-12-01T01:21:31.260Z,101023.81
2022-12-01T01:22:32.730Z,101025.78
2022-12-01T01:23:34.363Z,101021.28
2022-12-01T01:24:35.854Z,101011.50
2022-12-01T01:25:37.319Z,101024.44
2022-12-01T01:26:38.877Z,101026.75
2022-12-01T01:27:40.341Z,101023.94
2022-12-01T01:28:41.844Z,101030.16
2022-12-01T01:29:43.383Z,101026.69
2022-12-01T01:30:44.851Z,101023.06
2022-12-01T01:31:46.337Z,101033.38
2022-12-01T01:32:47.802Z,101033.88
2022-12-01T01:33:49.335Z,101030.94
2022-12-01T01:34:50.812Z,101026.97
2022-12-01T01:35:52.256Z,101033.41
2022-12-01T01:36:53.740Z,101033.28
2022-12-01T01:37:55.207Z,101034.38
2022-12-01T01:38:56.772Z,101033.16
2022-12-01T01:39:58.289Z,101035.84
2022-12-01T01:40:59.786Z,101033.31
2022-12-01T01:42:01.283Z,101039.97
2022-12-01T01:43:02.753Z,101038.03
2022-12-01T01:44:04.359Z,101033.31
2022-12-01T01:45:11.240Z,101015.59
2022-12-01T01:46:16.524Z,101045.53
2022-12-01T01:47:20.416Z,101038.13
2022-12-01T01:48:21.866Z,101038.63
2022-12-01T01:49:23.336Z,101043.34
2022-12-01T01:50:25.128Z,101042.84
2022-12-01T01:51:28.432Z,101049.03
2022-12-01T01:52:29.939Z,101042.16
2022-12-01T01:53:31.385Z,101041.66
2022-12-01T01:54:36.316Z,101042.25
2022-12-01T01:55:37.882Z,101041.41
2022-12-01T01:56:39.373Z,101038.38
2022-12-01T01:57:40.902Z,101038.38
2022-12-01T01:58:42.499Z,101042.00
2022-12-01T01:59:44.885Z,101042.59
2022-12-01T02:00:46.410Z,101040.41
2022-12-01T02:01:49.122Z,101043.81
2022-12-01T02:02:50.811Z,101047.47
2022-12-01T02:03:53.195Z,101046.38
2022-12-01T02:04:56.912Z,101051.31
2022-12-01T02:06:03.463Z,101042.94
2022-12-01T02:11:53.566Z,101045.03
2022-12-01T02:13:10.039Z,101050.00
2022-12-01T02:14:14.936Z,101052.78
2022-12-01T02:15:24.129Z,101050.00
2022-12-01T02:16:31.270Z,101045.03
2022-12-01T02:17:54.817Z,101043.31
2022-12-01T02:19:16.187Z,101046.72
2022-12-01T02:20:33.897Z,101049.25
2022-12-01T02:21:47.439Z,101045.72
2022-12-01T02:22:53.590Z,101043.34
2022-12-01T02:23:55.395Z,101049.63
2022-12-01T02:25:15.850Z,101044.94
2022-12-01T02:26:23.179Z,101044.69
2022-12-01T02:27:43.497Z,101048.31
2022-12-01T02:29:03.478Z,101046.97
2022-12-01T02:30:06.688Z,101045.88
2022-12-01T02:31:15.238Z,101049.75
2022-12-01T02:32:16.856Z,101045.88
2022-12-01T02:33:54.160Z,101050.38
2022-12-01T02:34:58.284Z,101040.06
2022-12-01T02:36:15.857Z,101050.97
2022-12-01T02:37:23.201Z,101043.44
2022-12-01T02:38:35.701Z,101048.19
2022-12-01T02:39:45.257Z,101039.81
2022-12-01T02:40:47.898Z,101041.75
2022-12-01T02:41:51.243Z,101045.38
2022-12-01T02:43:00.041Z,101043.94
2022-12-01T02:44:10.654Z,101044.19
2022-12-01T02:45:13.287Z,101048.66
2022-12-01T02:46:26.644Z,101040.31
2022-12-01T02:47:28.163Z,101040.81
2022-12-01T02:48:30.999Z,101044.56
2022-12-01T02:49:33.806Z,101044.56
2022-12-01T02:50:35.344Z,101044.56
2022-12-01T02:51:36.810Z,101045.63
2022-12-01T02:52:38.662Z,101034.25
2022-12-01T02:53:40.210Z,101040.66
2022-12-01T02:54:41.748Z,101039.56
2022-12-01T02:55:46.975Z,101047.72
2022-12-01T02:56:51.331Z,101042.16
2022-12-01T02:57:52.858Z,101039.13
2022-12-01T02:58:54.432Z,101038.03
2022-12-01T02:59:56.025Z,101044.19
2022-12-01T03:01:18.193Z,101045.28
2022-12-01T03:02:24.626Z,101044.06
2022-12-01T03:03:35.589Z,101038.72
2022-12-01T03:04:56.884Z,101040.66
2022-12-01T03:06:16.880Z,101042.34
2022-12-01T03:07:37.118Z,101038.47
2022-12-01T03:08:46.077Z,101045.03
2022-12-01T03:10:09.764Z,101043.59
2022-12-01T03:11:26.960Z,101040.31
2022-12-01T03:12:39.244Z,101035.59
2022-12-01T03:13:49.437Z,101033.41
2022-12-01T03:14:58.377Z,101036.19
2022-12-01T03:16:05.742Z,101042.59
2022-12-01T03:17:11.298Z,101032.06
2022-12-01T03:18:18.661Z,101030.38
2022-12-01T03:19:23.073Z,101037.63
2022-12-01T03:20:36.527Z,101033.78
2022-12-01T03:21:38.000Z,101038.47
2022-12-01T03:22:41.444Z,101040.19
2022-12-01T03:23:44.798Z,101035.69
2022-12-01T03:24:46.718Z,101036.56
2022-12-01T03:25:48.555Z,101033.78
2022-12-01T03:26:52.299Z,101032.91
2022-12-01T03:28:20.280Z,101032.91
2022-12-01T03:29:18.578Z,101038.47
2022-12-01T03:30:20.072Z,101037.63
2022-12-01T03:31:23.104Z,101038.47
2022-12-01T03:32:29.661Z,101035.69
2022-12-01T03:33:35.264Z,101034.00
2022-12-01T03:34:39.689Z,101039.81
2022-12-01T03:35:42.755Z,101041.75
2022-12-01T03:36:45.774Z,101038.97
2022-12-01T03:37:49.604Z,101038.97
2022-12-01T03:38:52.643Z,101046.25
2022-12-01T03:40:00.319Z,101035.09
2022-12-01T03:41:09.547Z,101036.78
2022-12-01T03:42:14.064Z,101036.78
2022-12-01T03:43:16.211Z,101038.47
2022-12-01T03:44:19.912Z,101042.16
2022-12-01T03:45:26.672Z,101035.69
2022-12-01T03:46:32.971Z,101035.69
2022-12-01T03:47:37.250Z,101033.78
2022-12-01T03:48:38.840Z,101035.94
2022-12-01T03:49:40.334Z,101041.75
2022-12-01T03:51:14.109Z,101040.56
2022-12-01T03:52:38.610Z,101042.50
2022-12-01T03:53:51.613Z,101032.81
2022-12-01T03:54:55.931Z,101042.63
2022-12-01T03:55:58.528Z,101046.50
2022-12-01T03:57:00.669Z,101035.34
2022-12-01T03:58:12.600Z,101034.16
2022-12-01T03:59:14.095Z,101043.72
2022-12-01T04:00:15.695Z,101040.91
2022-12-01T04:01:17.364Z,101043.72
2022-12-01T04:02:18.927Z,101049.03
2022-12-01T04:03:20.694Z,101044.81
2022-12-01T04:04:22.214Z,101047.84
2022-12-01T04:05:25.468Z,101050.50
2022-12-01T04:06:27.230Z,101054.59
2022-12-01T04:07:28.824Z,101056.31
2022-12-01T04:08:30.815Z,101050.13
2022-12-01T04:09:32.341Z,101056.31
2022-12-01T04:10:33.872Z,101060.81
2022-12-01T04:11:53.842Z,101047.47
2022-12-01T04:12:59.376Z,101056.94
2022-12-01T04:14:00.878Z,101056.06
2022-12-01T04:15:03.629Z,101064.19
2022-12-01T04:16:05.279Z,101057.78
2022-12-01T04:17:06.798Z,101061.41
2022-12-01T04:18:08.293Z,101059.47
2022-12-01T04:19:10.669Z,101060.81
2022-12-01T04:20:13.126Z,101059.97
2022-12-01T04:21:14.742Z,101059.13
2022-12-01T04:22:16.267Z,101057.38
2022-12-01T04:23:36.586Z,101062.97
2022-12-01T04:24:38.116Z,101059.81
2022-12-01T04:25:39.598Z,101054.50
2022-12-01T04:26:42.114Z,101063.94
2022-12-01T04:27:43.625Z,101056.69
2022-12-01T04:28:45.192Z,101056.06
2022-12-01T04:29:47.342Z,101061.88
2022-12-01T04:30:49.187Z,101069.16
2022-12-01T04:31:50.757Z,101063.59
2022-12-01T04:32:52.320Z,101060.78
2022-12-01T04:33:54.506Z,101058.00
2022-12-01T04:34:56.002Z,101066.13
2022-12-01T04:35:58.175Z,101065.03
2022-12-01T04:36:59.710Z,101054.38
2022-12-01T04:38:01.248Z,101060.56
2022-12-01T04:39:02.836Z,101055.47
2022-12-01T04:40:05.808Z,101060.19
2022-12-01T04:41:10.589Z,101059.34
2022-12-01T04:42:12.067Z,101062.97
2022-12-01T04:43:13.537Z,101065.13
2022-12-01T04:44:15.429Z,101060.41
2022-12-01T04:45:16.909Z,101065.13
2022-12-01T04:46:18.463Z,101067.06
2022-12-01T04:47:19.970Z,101062.13
2022-12-01T04:48:21.509Z,101064.03
2022-12-01T04:49:22.967Z,101061.88
2022-12-01T04:50:24.479Z,101058.84
2022-12-01T04:51:26.142Z,101058.63
2022-12-01T04:52:33.620Z,101067.91
2022-12-01T04:53:36.666Z,101068.75
2022-12-01T04:54:38.169Z,101057.50
2022-12-01T04:55:39.750Z,101064.16
2022-12-01T04:56:41.420Z,101060.78
2022-12-01T04:57:42.915Z,101063.06
2022-12-01T04:58:44.586Z,101058.13
2022-12-01T04:59:46.042Z,101059.81
2022-12-01T05:00:47.687Z,101055.94
2022-12-01T05:01:49.569Z,101062.13
2022-12-01T05:02:51.066Z,101056.56
2022-12-01T05:03:52.604Z,101061.03
2022-12-01T05:04:54.126Z,101052.91
2022-12-01T05:06:22.174Z,101057.16
2022-12-01T05:07:23.741Z,101060.56
2022-12-01T05:08:25.274Z,101060.31
2022-12-01T05:09:26.798Z,101058.38
2022-12-01T05:10:28.279Z,101063.09
2022-12-01T05:11:30.018Z,101058.63
2022-12-01T05:12:31.614Z,101054.97
2022-12-01T05:13:33.089Z,101067.81
2022-12-01T05:14:34.600Z,101066.13
2022-12-01T05:15:36.081Z,101072.19
2022-12-01T05:16:37.670Z,101066.63
2022-12-01T05:17:39.451Z,101067.47
2022-12-01T05:18:41.212Z,101073.03
2022-12-01T05:20:01.612Z,101070.50
2022-12-01T05:21:04.021Z,101064.03
2022-12-01T05:22:05.567Z,101066.63
2022-12-01T05:23:08.266Z,101074.72
2022-12-01T05:24:12.553Z,101067.47
2022-12-01T05:25:14.258Z,101070.00
2022-12-01T05:26:15.834Z,101076.06
2022-12-01T05:27:17.367Z,101064.69
2022-12-01T05:28:19.078Z,101062.00
2022-12-01T05:29:20.524Z,101072.53
2022-12-01T05:30:25.647Z,101073.13
2022-12-01T05:31:30.023Z,101077.00
2022-12-01T05:32:31.572Z,101063.69
2022-12-01T05:33:33.139Z,101064.16
2022-12-01T05:34:34.747Z,101072.28
2022-12-01T05:35:36.224Z,101066.47
2022-12-01T05:36:37.680Z,101062.34
2022-12-01T05:37:39.241Z,101068.75
2022-12-01T05:38:40.690Z,101065.38
2022-12-01T05:39:42.217Z,101067.31
2022-12-01T05:40:43.815Z,101067.06
2022-12-01T05:41:45.269Z,101070.94
2022-12-01T05:42:46.756Z,101074.81
2022-12-01T05:43:52.194Z,101067.56
2022-12-01T05:44:53.648Z,101069.38
2022-12-01T05:45:56.149Z,101075.78
2022-12-01T05:46:57.749Z,101073.63
2022-12-01T05:47:59.787Z,101075.31
2022-12-01T05:49:01.321Z,101073.38
2022-12-01T05:50:05.761Z,101075.31
2022-12-01T05:51:08.967Z,101070.22
2022-12-01T05:52:10.487Z,101067.44
2022-12-01T05:53:12.709Z,101082.66
2022-12-01T05:54:14.203Z,101079.66
2022-12-01T05:55:15.755Z,101077.72
2022-12-01T05:56:17.550Z,101075.78
2022-12-01T05:57:19.105Z,101081.38
2022-12-01T05:58:21.458Z,101083.91
2022-12-01T05:59:22.968Z,101084.75
2022-12-01T06:00:24.427Z,101081.81
2022-12-01T06:01:25.912Z,101085.94
2022-12-01T06:02:27.438Z,101086.53
2022-12-01T06:03:28.947Z,101089.56
2022-12-01T06:04:30.470Z,101078.69
2022-12-01T06:05:32.254Z,101085.94
2022-12-01T06:06:33.719Z,101082.56
2022-12-01T06:07:35.782Z,101087.03
2022-12-01T06:08:37.390Z,101089.56
2022-12-01T06:09:38.913Z,101085.69
2022-12-01T06:10:40.433Z,101092.13
2022-12-01T06:11:41.946Z,101089.13
2022-12-01T06:12:43.388Z,101089.56
2022-12-01T06:13:44.848Z,101096.00
2022-12-01T06:14:46.318Z,101095.13
2022-12-01T06:15:55.763Z,101100.72
2022-12-01T06:16:57.263Z,101088.47
2022-12-01T06:17:59.049Z,101093.19
2022-12-01T06:19:00.567Z,101095.13
2022-12-01T06:20:02.044Z,101093.19
2022-12-01T06:21:04.064Z,101099.63
2022-12-01T06:22:05.605Z,101094.03
2022-12-01T06:23:07.125Z,101097.69
2022-12-01T06:24:08.634Z,101096.59
2022-12-01T06:25:10.157Z,101097.47
2022-12-01T06:26:11.793Z,101092.13
2022-12-01T06:27:13.306Z,101091.50
2022-12-01T06:28:14.854Z,101092.34
2022-12-01T06:29:16.343Z,101101.81
2022-12-01T06:30:17.924Z,101092.34
2022-12-01T06:31:19.586Z,101095.13
2022-12-01T06:32:21.443Z,101103.50
2022-12-01T06:33:22.975Z,101090.41
2022-12-01T06:34:24.514Z,101091.50
2022-12-01T06:35:26.001Z,101091.25
2022-12-01T06:36:27.515Z,101097.69
2022-12-01T06:37:29.008Z,101096.84
2022-12-01T06:38:30.790Z,101095.75
2022-12-01T06:39:32.338Z,101100.25
2022-12-01T06:40:33.802Z,101098.53
2022-12-01T06:41:36.337Z,101094.91
2022-12-01T06:42:37.780Z,101100.09
2022-12-01T06:43:39.231Z,101102.88
2022-12-01T06:44:40.725Z,101099.50
2022-12-01T06:45:42.255Z,101101.19
2022-12-01T06:46:43.853Z,101105.06
2022-12-01T06:47:47.031Z,101108.94
2022-12-01T06:48:49.255Z,101105.97
2022-12-01T06:49:51.042Z,101114.97
2022-12-01T06:50:52.873Z,101109.38
2022-12-01T06:51:54.378Z,101108.75
2022-12-01T06:52:55.881Z,101116.25
2022-12-01T06:54:02.137Z,101117.09
2022-12-01T06:55:06.964Z,101118.69
2022-12-01T06:56:08.754Z,101115.91
2022-12-01T06:57:10.529Z,101118.69
2022-12-01T06:58:12.196Z,101115.03
2022-12-01T06:59:14.243Z,101119.28
2022-12-01T07:00:16.165Z,101111.19
2022-12-01T07:01:18.116Z,101116.50
2022-12-01T07:02:19.772Z,101119.28
2022-12-01T07:03:21.267Z,101117.97
2022-12-01T07:04:22.733Z,101125.34
2022-12-01T07:05:24.278Z,101118.69
2022-12-01T07:06:25.777Z,101121.22
2022-12-01T07:07:27.348Z,101119.78
2022-12-01T07:08:29.346Z,101126.31
2022-12-01T07:09:30.785Z,101128.59
2022-12-01T07:10:32.247Z,101125.81
2022-12-01T07:11:36.361Z,101130.53
2022-12-01T07:12:37.868Z,101129.28
2022-12-01T07:13:39.434Z,101130.16
2022-12-01T07:14:42.427Z,101131.47
2022-12-01T07:15:44.403Z,101134.84
2022-12-01T07:16:45.978Z,101134.84
2022-12-01T07:17:47.509Z,101129.94
2022-12-01T07:18:49.210Z,101133.16
2022-12-01T07:19:50.824Z,101133.41
2022-12-01T07:20:52.388Z,101132.31
2022-12-01T07:21:53.928Z,101127.22
2022-12-01T07:22:55.405Z,101140.53
2022-12-01T07:23:57.142Z,101137.16
2022-12-01T07:24:58.709Z,101139.31
2022-12-01T07:26:04.343Z,101141.03
2022-12-01T07:27:05.831Z,101147.19
2022-12-01T07:28:07.292Z,101141.38
2022-12-01T07:29:09.315Z,101145.00
2022-12-01T07:30:11.218Z,101145.63
2022-12-01T07:31:13.753Z,101151.19
2022-12-01T07:32:15.358Z,101149.97
2022-12-01T07:33:16.854Z,101153.38
2022-12-01T07:34:18.312Z,101155.53
2022-12-01T07:35:20.288Z,101148.03
2022-12-01T07:36:21.766Z,101152.53
2022-12-01T07:37:23.339Z,101152.53
2022-12-01T07:38:24.877Z,101162.31
2022-12-01T07:39:26.338Z,101155.06
2022-12-01T07:40:27.824Z,101156.75
2022-12-01T07:41:29.306Z,101150.34
2022-12-01T07:42:30.924Z,101155.91
2022-12-01T07:43:32.700Z,101155.06
2022-12-01T07:44:34.243Z,101156.38
2022-12-01T07:45:35.697Z,101159.41
2022-12-01T07:46:37.279Z,101162.19
2022-12-01T07:47:38.810Z,101163.72
2022-12-01T07:48:40.574Z,101167.38
2022-12-01T07:49:42.066Z,101163.72
2022-12-01T07:50:43.558Z,101168.91
2022-12-01T07:51:45.002Z,101161.66
2022-12-01T07:52:50.617Z,101163.34
2022-12-01T07:53:52.439Z,101164.19
2022-12-01T07:54:53.881Z,101163.97
2022-12-01T07:55:55.462Z,101167.59
2022-12-01T07:56:56.945Z,101163.72
2022-12-01T07:58:01.550Z,101168.44
2022-12-01T07:59:03.093Z,101165.47
2022-12-01T08:00:05.030Z,101167.38
2022-12-01T08:01:17.348Z,101162.03
2022-12-01T08:02:19.045Z,101167.59
2022-12-01T08:03:20.577Z,101162.03
2022-12-01T08:04:22.037Z,101159.88
2022-12-01T08:05:23.549Z,101158.63
2022-12-01T08:06:25.232Z,101166.63
2022-12-01T08:07:29.837Z,101166.38
2022-12-01T08:08:32.389Z,101167.34
2022-12-01T08:09:33.939Z,101177.22
2022-12-01T08:10:35.404Z,101176.13
2022-12-01T08:11:36.934Z,101158.34
2022-12-01T08:12:38.431Z,101179.31
2022-12-01T08:13:40.462Z,101167.34
2022-12-01T08:14:41.949Z,101170.97
2022-12-01T08:15:43.520Z,101172.03
2022-12-01T08:16:45.044Z,101178.47
2022-12-01T08:17:46.497Z,101181.56
2022-12-01T08:18:48.108Z,101179.38
2022-12-01T08:19:49.821Z,101184.09
2022-12-01T08:20:51.628Z,101182.78
2022-12-01T08:21:53.273Z,101183.38
2022-12-01T08:22:54.761Z,101180.59
2022-12-01T08:23:56.527Z,101182.16
2022-12-01T08:24:57.998Z,101181.31
2022-12-01T08:26:02.464Z,101181.06
2022-12-01T08:27:04.243Z,101189.03
2022-12-01T08:28:05.701Z,101186.88
2022-12-01T08:29:07.184Z,101189.66
2022-12-01T08:30:09.012Z,101191.34
2022-12-01T08:31:11.396Z,101186.63
2022-12-01T08:32:12.899Z,101190.28
2022-12-01T08:33:14.411Z,101180.69
2022-12-01T08:34:15.881Z,101190.75
2022-12-01T08:35:17.342Z,101187.34
2022-12-01T08:36:18.873Z,101194.84
2022-12-01T08:37:20.338Z,101186.50
2022-12-01T08:38:21.885Z,101182.03
2022-12-01T08:39:23.385Z,101195.31
2022-12-01T08:40:24.963Z,101192.75
2022-12-01T08:41:26.627Z,101191.53
2022-12-01T08:42:28.156Z,101191.91
2022-12-01T08:43:56.119Z,101186.97
2022-12-01T08:44:51.235Z,101191.22
2022-12-01T08:45:52.772Z,101192.91
2022-12-01T08:46:54.547Z,101197.41
2022-12-01T08:47:58.911Z,101197.88
2022-12-01T08:49:00.779Z,101189.59
2022-12-01T08:50:04.889Z,101193.16
2022-12-01T08:51:13.484Z,101189.91
2022-12-01T08:52:14.961Z,101198.72
2022-12-01T08:53:16.493Z,101199.16
2022-12-01T08:54:18.006Z,101191.91
2022-12-01T08:55:19.846Z,101188.03
2022-12-01T08:56:22.493Z,101191.91
2022-12-01T08:57:23.992Z,101186.97
2022-12-01T08:58:25.549Z,101190.38
2022-12-01T08:59:27.043Z,101186.97
2022-12-01T09:00:29.359Z,101190.19
2022-12-01T09:01:30.947Z,101185.25
2022-12-01T09:02:32.533Z,101185.88
2022-12-01T09:03:34.349Z,101190.13
2022-12-01T09:04:35.848Z,101197.78
2022-12-01T09:05:37.285Z,101185.41
2022-12-01T09:06:41.937Z,101193.28
2022-12-01T09:07:45.545Z,101193.66
2022-12-01T09:08:47.073Z,101195.59
2022-12-01T09:09:48.976Z,101193.91
2022-12-01T09:10:52.122Z,101200.31
2022-12-01T09:11:53.881Z,101193.91
2022-12-01T09:12:55.502Z,101196.44
2022-12-01T09:13:57.026Z,101177.59
2022-12-01T09:14:58.606Z,101187.72
2022-12-01T09:16:01.048Z,101188.34
2022-12-01T09:17:02.649Z,101197.78
2022-12-01T09:18:04.204Z,101193.91
2022-12-01T09:19:05.677Z,101189.66
2022-12-01T09:20:07.831Z,101198.38
2022-12-01T09:21:11.473Z,101174.75
2022-12-01T09:22:13.015Z,101194.06
2022-12-01T09:23:14.484Z,101194.91
2022-12-01T09:24:16.103Z,101194.38
2022-12-01T09:25:17.580Z,101195.84
2022-12-01T09:26:19.611Z,101199.03
2022-12-01T09:27:21.110Z,101203.03
2022-12-01T09:28:22.689Z,101204.00
2022-12-01T09:29:24.290Z,101197.59
2022-12-01T09:30:25.868Z,101198.84
2022-12-01T09:31:28.034Z,101194.13
2022-12-01T09:32:29.558Z,101195.44
2022-12-01T09:33:31.163Z,101187.56
2022-12-01T09:34:32.726Z,101192.88
2022-12-01T09:35:34.202Z,101186.00
2022-12-01T09:36:36.005Z,101192.44
2022-12-01T09:37:37.580Z,101190.34
2022-12-01T09:38:39.085Z,101196.38
2022-12-01T09:39:40.550Z,101199.78
2022-12-01T09:40:42.732Z,101195.91
2022-12-01T09:41:45.578Z,101196.97
2022-12-01T09:42:47.487Z,101204.25
2022-12-01T09:43:52.948Z,101187.66
2022-12-01T09:44:55.120Z,101196.00
2022-12-01T09:45:58.553Z,101194.69
2022-12-01T09:47:19.614Z,101188.88
2022-12-01T09:48:29.105Z,101187.56
2022-12-01T09:49:49.831Z,101194.56
2022-12-01T09:50:51.682Z,101193.28
2022-12-01T09:51:53.247Z,101186.16
2022-12-01T09:52:57.224Z,101183.75
2022-12-01T09:53:59.051Z,101179.63
2022-12-01T09:55:00.606Z,101180.28
2022-12-01T09:56:08.553Z,101181.31
2022-12-01T09:57:32.028Z,101184.50
2022-12-01T09:58:33.626Z,101180.41
2022-12-01T09:59:35.948Z,101183.06
2022-12-01T10:00:38.248Z,101188.38
2022-12-01T10:01:42.177Z,101186.69
2022-12-01T10:02:54.156Z,101185.13
2022-12-01T10:03:56.086Z,101183.19
2022-12-01T10:04:58.100Z,101183.06
2022-12-01T10:06:26.837Z,101179.25
2022-12-01T10:07:29.885Z,101175.03
2022-12-01T10:08:32.022Z,101172.84
2022-12-01T10:09:38.286Z,101181.81
2022-12-01T10:10:40.607Z,101170.44
2022-12-01T10:11:42.454Z,101171.03
2022-12-01T10:12:44.176Z,101162.69
2022-12-01T10:13:45.658Z,101171.69
2022-12-01T10:14:47.485Z,101170.19
2022-12-01T10:15:56.649Z,101163.78
2022-12-01T10:16:58.192Z,101172.38
2022-12-01T10:18:02.767Z,101161.09
2022-12-01T10:19:16.287Z,101159.25
2022-12-01T10:20:23.660Z,101164.97
2022-12-01T10:21:44.360Z,101160.03
2022-12-01T10:22:49.964Z,101159.66
2022-12-01T10:23:58.252Z,101160.94
2022-12-01T10:25:16.999Z,101157.72
2022-12-01T10:26:36.703Z,101157.84
2022-12-01T10:27:57.089Z,101156.16
2022-12-01T10:29:07.818Z,101153.25
2022-12-01T10:30:10.293Z,101147.19
2022-12-01T10:31:21.783Z,101147.78
2022-12-01T10:32:29.647Z,101144.28
2022-12-01T10:33:35.260Z,101146.94
2022-12-01T10:34:38.952Z,101147.19
2022-12-01T10:35:41.725Z,101147.44
2022-12-01T10:36:43.303Z,101149.97
2022-12-01T10:37:44.970Z,101142.09
2022-12-01T10:38:46.514Z,101143.09
2022-12-01T10:39:49.237Z,101147.09
2022-12-01T10:40:51.630Z,101141.16
2022-12-01T10:41:53.138Z,101142.59
2022-12-01T10:42:54.745Z,101142.59
2022-12-01T10:43:59.421Z,101137.44
2022-12-01T10:45:01.483Z,101131.22
2022-12-01T10:46:05.743Z,101133.56
2022-12-01T10:47:18.460Z,101133.06
2022-12-01T10:48:20.694Z,101128.72
2022-12-01T10:49:34.037Z,101125.47
2022-12-01T10:50:35.884Z,101122.22
2022-12-01T10:51:51.258Z,101120.06
2022-12-01T10:52:52.736Z,101121.28
2022-12-01T10:54:06.418Z,101120.19
2022-12-01T10:55:22.926Z,101118.88
2022-12-01T10:56:24.483Z,101113.09
2022-12-01T10:57:26.540Z,101127.63
2022-12-01T10:58:28.018Z,101112.59
2022-12-01T10:59:45.802Z,101114.28
2022-12-01T11:01:02.245Z,101109.22
2022-12-01T11:02:04.608Z,101109.22
2022-12-01T11:03:06.439Z,101113.94
2022-12-01T11:04:08.987Z,101105.81
2022-12-01T11:05:39.977Z,101107.97
2022-12-01T11:06:41.479Z,101111.84
2022-12-01T11:07:43.499Z,101107.13
2022-12-01T11:08:52.640Z,101107.97
2022-12-01T11:10:00.049Z,101106.66
2022-12-01T11:11:01.524Z,101101.81
2022-12-01T11:12:03.579Z,101106.28
2022-12-01T11:13:07.392Z,101106.53
2022-12-01T11:14:18.583Z,101106.28
2022-12-01T11:15:21.163Z,101093.44
2022-12-01T11:16:41.260Z,101103.25
2022-12-01T11:17:42.931Z,101101.09
2022-12-01T11:18:44.629Z,101098.06
2022-12-01T11:19:46.281Z,101096.75
2022-12-01T11:20:48.536Z,101092.63
2022-12-01T11:21:50.930Z,101103.28
2022-12-01T11:22:52.365Z,101103.28
2022-12-01T11:23:54.658Z,101098.56
2022-12-01T11:24:57.279Z,101103.28
2022-12-01T11:26:00.209Z,101103.91
2022-12-01T11:27:01.846Z,101101.97
2022-12-01T11:28:03.593Z,101105.22
2022-12-01T11:29:06.832Z,101102.19
2022-12-01T11:30:15.822Z,101098.78
2022-12-01T11:31:17.359Z,101096.63
2022-12-01T11:32:20.776Z,101102.66
2022-12-01T11:33:22.279Z,101094.81
2022-12-01T11:34:24.996Z,101102.31
2022-12-01T11:35:28.000Z,101098.53
2022-12-01T11:36:39.751Z,101092.13
2022-12-01T11:38:13.087Z,101098.06
2022-12-01T11:39:28.314Z,101089.13
2022-12-01T11:40:30.835Z,101099.78
2022-12-01T11:41:33.689Z,101104.25
2022-12-01T11:42:36.992Z,101090.09
2022-12-01T11:43:38.473Z,101097.09
2022-12-01T11:44:55.552Z,101088.50
2022-12-01T11:45:57.386Z,101089.34
2022-12-01T11:47:22.537Z,101095.56
2022-12-01T11:48:28.064Z,101081.63
2022-12-01T11:49:29.578Z,101094.47
2022-12-01T11:50:32.456Z,101095.06
2022-12-01T11:51:37.623Z,101100.16
2022-12-01T11:52:45.831Z,101097.38
2022-12-01T11:53:47.293Z,101084.03
2022-12-01T11:55:05.756Z,101096.03
2022-12-01T11:56:11.367Z,101088.28
2022-12-01T11:58:12.612Z,101091.91
2022-12-01T11:58:35.067Z,101085.25
2022-12-01T11:59:36.507Z,101082.47
2022-12-01T12:00:46.067Z,101080.06
2022-12-01T12:01:47.509Z,101084.28
2022-12-01T12:02:49.123Z,101083.81
2022-12-01T12:04:10.970Z,101076.69
2022-12-01T12:05:26.997Z,101074.50
2022-12-01T12:06:39.860Z,101079.81
2022-12-01T12:07:45.128Z,101079.31
2022-12-01T12:08:49.786Z,101074.59
2022-12-01T12:10:00.045Z,101069.03
2022-12-01T12:11:07.782Z,101075.44
2022-12-01T12:12:41.376Z,101076.03
2022-12-01T12:13:52.839Z,101078.22
2022-12-01T12:14:58.413Z,101072.31
2022-12-01T12:16:06.609Z,101081.25